Time;durP1;ratioP1;P1;durP2;ratioP2;P2;SDS_P1;SDS_P2;PMS_P1;PMS_P2;Temp;Humidity;BMP_temperature;BMP_pressure;BME280_temperature;BME280_humidity;BME280_pressure;Samples;Min_cycle;Max_cycle;Signal;HPM_P1;HPM_P2
2024/01/12 00:00:19;;;;;;;46.85;21.55;;;0.10;99.90;;;;;;7364588;32;20103;-55
2024/01/12 00:04:21;;;;;;;53.17;23.67;;;0.10;99.90;;;;;;7359804;32;20209;-56
2024/01/12 00:08:23;;;;;;;49.40;22.50;;;0.10;99.90;;;;;;7355717;32;20181;-56
2024/01/12 00:12:25;;;;;;;55.78;23.30;;;0.10;99.90;;;;;;7355478;32;20133;-57
2024/01/12 00:16:26;;;;;;;46.45;22.58;;;-0.10;99.90;;;;;;7362910;32;20133;-57
2024/01/12 00:20:28;;;;;;;55.67;24.87;;;0.00;99.90;;;;;;7354554;32;20150;-57
2024/01/12 00:24:30;;;;;;;54.35;23.65;;;0.00;99.90;;;;;;7356944;32;20110;-55
2024/01/12 00:28:32;;;;;;;51.78;23.90;;;0.00;99.90;;;;;;7368470;32;20127;-56
2024/01/12 00:32:38;;;;;;;55.63;25.90;;;0.00;99.90;;;;;;7365274;32;20539;-58
2024/01/12 00:36:39;;;;;;;57.63;25.83;;;0.10;99.90;;;;;;7364606;32;20273;-56
2024/01/12 00:40:41;;;;;;;55.50;25.60;;;0.10;99.90;;;;;;7362687;32;20138;-56
2024/01/12 00:44:43;;;;;;;57.30;25.75;;;0.10;99.90;;;;;;7359968;32;20226;-57
2024/01/12 00:48:45;;;;;;;61.97;26.30;;;0.10;99.90;;;;;;7362149;32;20127;-58
2024/01/12 00:52:47;;;;;;;60.25;26.15;;;0.20;99.90;;;;;;7368372;32;20666;-58
2024/01/12 00:56:49;;;;;;;61.53;27.00;;;0.10;99.90;;;;;;7364912;32;20246;-58
2024/01/12 01:00:50;;;;;;;62.40;26.58;;;0.20;99.90;;;;;;7367823;32;20118;-57
2024/01/12 01:04:52;;;;;;;66.20;27.13;;;0.20;99.90;;;;;;7361186;32;20457;-55
2024/01/12 01:08:54;;;;;;;67.53;27.98;;;0.20;99.90;;;;;;7368258;32;20127;-58
2024/01/12 01:12:56;;;;;;;64.25;27.30;;;0.20;99.90;;;;;;7357959;32;20116;-57
2024/01/12 01:16:58;;;;;;;68.22;27.65;;;0.10;99.90;;;;;;7357300;32;20549;-57
2024/01/12 01:20:59;;;;;;;70.25;27.25;;;0.10;99.90;;;;;;7356225;32;20206;-57
2024/01/12 01:25:01;;;;;;;67.15;27.58;;;0.10;99.90;;;;;;7354915;32;20160;-57
2024/01/12 01:29:03;;;;;;;70.72;28.77;;;0.20;99.90;;;;;;7364360;32;20129;-57
2024/01/12 01:33:05;;;;;;;66.00;28.23;;;0.20;99.90;;;;;;7356392;32;20285;-58
2024/01/12 01:37:07;;;;;;;67.82;27.98;;;0.30;99.90;;;;;;7359306;32;20106;-57
2024/01/12 01:41:09;;;;;;;74.72;28.77;;;0.10;99.90;;;;;;7357761;32;20165;-58
2024/01/12 01:45:10;;;;;;;79.18;29.55;;;0.20;99.90;;;;;;7368305;32;20130;-57
2024/01/12 01:49:12;;;;;;;73.87;28.00;;;0.20;99.90;;;;;;7369485;32;20099;-58
2024/01/12 01:53:14;;;;;;;77.22;30.20;;;0.30;99.90;;;;;;7372733;32;20127;-58
2024/01/12 01:57:16;;;;;;;75.15;28.70;;;0.20;99.90;;;;;;7375546;32;20209;-57
2024/01/12 02:01:20;;;;;;;80.05;31.87;;;0.30;99.90;;;;;;7372776;32;20191;-58
2024/01/12 02:05:22;;;;;;;74.37;29.45;;;0.20;99.90;;;;;;7362530;32;20126;-57
2024/01/12 02:09:24;;;;;;;70.30;28.95;;;0.20;99.90;;;;;;7375285;32;20490;-58
2024/01/12 02:13:26;;;;;;;78.82;29.65;;;0.20;99.90;;;;;;7363439;32;20255;-57
2024/01/12 02:17:27;;;;;;;82.15;30.20;;;0.10;99.90;;;;;;7366084;32;20166;-57
2024/01/12 02:21:29;;;;;;;83.50;29.95;;;0.20;99.90;;;;;;7364109;32;20154;-58
2024/01/12 02:25:31;;;;;;;81.87;29.45;;;0.10;99.90;;;;;;7358959;32;20491;-58
2024/01/12 02:29:33;;;;;;;85.15;30.77;;;0.20;99.90;;;;;;7370632;32;20122;-58
2024/01/12 02:33:35;;;;;;;77.93;29.85;;;0.20;99.90;;;;;;7376747;32;20103;-57
2024/01/12 02:37:37;;;;;;;74.60;30.00;;;0.30;99.90;;;;;;7367311;32;20250;-57
2024/01/12 02:41:38;;;;;;;85.20;31.15;;;0.20;99.90;;;;;;7367150;32;20183;-57
2024/01/12 02:45:40;;;;;;;78.95;30.15;;;0.30;99.90;;;;;;7356990;32;20151;-58
2024/01/12 02:49:43;;;;;;;77.55;30.60;;;0.30;99.90;;;;;;7370583;32;20205;-58
2024/01/12 02:53:44;;;;;;;86.18;31.52;;;0.40;99.90;;;;;;7376384;32;20129;-58
2024/01/12 02:57:46;;;;;;;86.40;31.65;;;0.30;99.90;;;;;;7363345;32;20672;-57
2024/01/12 03:01:48;;;;;;;90.10;31.27;;;0.40;99.90;;;;;;7365146;32;20564;-56
2024/01/12 03:05:50;;;;;;;92.28;32.15;;;0.40;99.90;;;;;;7363977;32;20964;-56
2024/01/12 03:09:52;;;;;;;88.12;31.67;;;0.30;99.90;;;;;;7360094;32;20125;-57
2024/01/12 03:13:54;;;;;;;100.30;32.10;;;0.40;99.90;;;;;;7365071;32;20139;-56
2024/01/12 03:17:56;;;;;;;97.45;30.67;;;0.40;99.90;;;;;;7365147;32;20874;-56
2024/01/12 03:21:58;;;;;;;97.37;32.28;;;0.30;99.90;;;;;;7366541;32;20106;-55
2024/01/12 03:26:00;;;;;;;101.72;32.60;;;0.30;99.90;;;;;;7358996;32;20469;-55
2024/01/12 03:30:02;;;;;;;106.30;32.90;;;0.30;99.90;;;;;;7360392;32;20290;-56
2024/01/12 03:34:04;;;;;;;110.40;34.42;;;0.30;99.90;;;;;;7374189;32;20632;-56
2024/01/12 03:38:06;;;;;;;96.25;31.75;;;0.30;99.90;;;;;;7363568;32;20210;-56
2024/01/12 03:42:08;;;;;;;103.85;33.38;;;0.30;99.90;;;;;;7368764;32;20095;-56
2024/01/12 03:46:10;;;;;;;99.35;31.08;;;0.30;99.90;;;;;;7369723;32;20111;-57
2024/01/12 03:50:12;;;;;;;116.70;34.67;;;0.30;99.90;;;;;;7374739;32;20258;-56
2024/01/12 03:54:13;;;;;;;103.00;33.00;;;0.30;99.90;;;;;;7360789;32;20513;-56
2024/01/12 03:58:15;;;;;;;111.50;33.70;;;0.30;99.90;;;;;;7359353;32;20122;-57
2024/01/12 04:02:18;;;;;;;117.60;35.03;;;0.30;99.90;;;;;;7362516;32;20149;-56
2024/01/12 04:06:19;;;;;;;103.25;34.47;;;0.30;99.90;;;;;;7360694;32;20600;-54
2024/01/12 04:10:21;;;;;;;99.75;33.78;;;0.30;99.90;;;;;;7368590;32;20126;-55
2024/01/12 04:14:23;;;;;;;98.40;33.80;;;0.30;99.90;;;;;;7369904;32;20163;-55
2024/01/12 04:18:25;;;;;;;97.22;32.63;;;0.30;99.90;;;;;;7362345;32;20145;-56
2024/01/12 04:22:27;;;;;;;99.93;33.83;;;0.40;99.90;;;;;;7360551;32;20272;-55
2024/01/12 04:26:29;;;;;;;89.20;32.47;;;0.40;99.90;;;;;;7362874;32;20263;-56
2024/01/12 04:30:30;;;;;;;100.45;34.92;;;0.40;99.90;;;;;;7356536;32;20345;-55
2024/01/12 04:34:36;;;;;;;93.00;34.00;;;0.40;99.90;;;;;;7356691;32;20096;-56
2024/01/12 04:38:39;;;;;;;103.53;32.92;;;0.30;99.90;;;;;;7365281;32;20321;-56
2024/01/12 04:42:40;;;;;;;111.32;34.85;;;0.30;99.90;;;;;;7365416;32;20174;-57
2024/01/12 04:46:42;;;;;;;105.78;34.15;;;0.30;99.90;;;;;;7368143;32;20111;-56
2024/01/12 04:50:44;;;;;;;110.07;34.25;;;0.40;99.90;;;;;;7362198;32;20104;-57
2024/01/12 04:54:46;;;;;;;113.50;36.65;;;0.40;99.90;;;;;;7364906;32;20251;-57
2024/01/12 04:58:48;;;;;;;108.68;33.97;;;0.40;99.90;;;;;;7361992;32;20332;-56
2024/01/12 05:02:49;;;;;;;112.15;36.03;;;0.40;99.90;;;;;;7362524;32;20478;-56
2024/01/12 05:06:51;;;;;;;108.30;34.22;;;0.30;99.90;;;;;;7360028;32;20378;-56
2024/01/12 05:10:54;;;;;;;122.93;35.97;;;0.30;99.90;;;;;;7369665;32;20125;-56
2024/01/12 05:14:56;;;;;;;115.10;35.40;;;0.40;99.90;;;;;;7363284;32;20294;-54
2024/01/12 05:18:58;;;;;;;107.28;33.08;;;0.40;99.90;;;;;;7365050;32;20224;-55
2024/01/12 05:22:59;;;;;;;96.93;32.22;;;0.40;99.90;;;;;;7360649;32;20792;-55
2024/01/12 05:27:01;;;;;;;96.65;31.95;;;0.40;99.90;;;;;;7352599;32;20119;-56
2024/01/12 05:31:04;;;;;;;97.97;33.17;;;0.40;99.90;;;;;;7368357;32;20099;-57
2024/01/12 05:35:06;;;;;;;104.22;34.70;;;0.40;99.90;;;;;;7368130;32;20103;-56
2024/01/12 05:39:08;;;;;;;108.10;33.55;;;0.40;99.90;;;;;;7368087;32;20218;-56
2024/01/12 05:43:10;;;;;;;113.85;35.22;;;0.40;99.90;;;;;;7372872;32;20525;-56
2024/01/12 05:47:13;;;;;;;115.32;34.97;;;0.40;99.90;;;;;;7366893;32;20174;-56
2024/01/12 05:51:15;;;;;;;115.45;33.88;;;0.40;99.90;;;;;;7369967;32;20138;-57
2024/01/12 05:55:17;;;;;;;106.30;34.50;;;0.40;99.90;;;;;;7361033;32;20142;-56
2024/01/12 05:59:19;;;;;;;112.85;34.03;;;0.40;99.90;;;;;;7365832;32;20183;-55
2024/01/12 06:03:21;;;;;;;104.63;32.53;;;0.50;99.90;;;;;;7362221;32;20176;-56
2024/01/12 06:07:23;;;;;;;106.35;32.78;;;0.50;99.90;;;;;;7364336;32;20482;-56
2024/01/12 06:11:24;;;;;;;103.53;33.83;;;0.50;99.90;;;;;;7366896;32;20149;-57
2024/01/12 06:15:26;;;;;;;106.47;32.97;;;0.50;99.90;;;;;;7365993;32;21956;-57
2024/01/12 06:19:28;;;;;;;108.53;32.72;;;0.60;99.90;;;;;;7352978;32;20119;-54
2024/01/12 06:23:30;;;;;;;100.07;31.48;;;0.60;99.90;;;;;;7362085;32;20306;-56
2024/01/12 06:27:31;;;;;;;95.38;31.37;;;0.60;99.90;;;;;;7368417;32;20185;-55
2024/01/12 06:31:33;;;;;;;83.35;28.55;;;0.60;99.90;;;;;;7357935;32;20169;-56
2024/01/12 06:35:35;;;;;;;99.32;30.92;;;0.50;99.90;;;;;;7359174;32;20108;-57
2024/01/12 06:39:39;;;;;;;99.20;29.37;;;0.50;99.90;;;;;;7363957;32;20133;-56
2024/01/12 06:43:41;;;;;;;91.70;27.58;;;0.60;99.90;;;;;;7361139;32;20429;-56
2024/01/12 06:47:43;;;;;;;90.10;26.45;;;0.70;99.90;;;;;;7355286;32;20516;-56
2024/01/12 06:51:46;;;;;;;105.87;33.05;;;0.70;99.90;;;;;;7367395;32;20111;-55
2024/01/12 06:55:48;;;;;;;88.60;29.52;;;0.70;99.90;;;;;;7365618;32;20802;-56
2024/01/12 06:59:50;;;;;;;83.68;27.30;;;0.80;99.90;;;;;;7368693;32;20149;-55
2024/01/12 07:03:52;;;;;;;84.87;28.17;;;0.70;99.90;;;;;;7360735;32;20155;-56
2024/01/12 07:07:53;;;;;;;84.68;25.98;;;0.70;99.90;;;;;;7364549;32;20165;-57
2024/01/12 07:11:55;;;;;;;76.28;24.50;;;0.80;99.90;;;;;;7361811;32;20135;-56
2024/01/12 07:15:57;;;;;;;78.60;24.58;;;0.60;99.90;;;;;;7364336;32;20352;-56
2024/01/12 07:19:58;;;;;;;76.22;25.08;;;0.70;99.90;;;;;;7362082;32;20285;-56
2024/01/12 07:24:01;;;;;;;64.87;21.42;;;0.80;99.90;;;;;;7364752;32;20107;-56
2024/01/12 07:28:04;;;;;;;57.92;20.88;;;0.70;99.90;;;;;;7363162;32;20171;-57
2024/01/12 07:32:06;;;;;;;65.93;22.33;;;0.70;99.90;;;;;;7357986;32;20399;-57
2024/01/12 07:36:08;;;;;;;65.00;22.50;;;0.80;99.90;;;;;;7356649;32;20627;-57
2024/01/12 07:40:12;;;;;;;67.95;21.85;;;0.80;99.90;;;;;;7361127;32;20111;-57
2024/01/12 07:44:14;;;;;;;74.30;25.40;;;0.70;99.90;;;;;;7367792;32;20225;-58
2024/01/12 07:48:16;;;;;;;75.18;24.10;;;0.90;99.90;;;;;;7362124;32;20119;-57
2024/01/12 07:52:17;;;;;;;68.50;22.92;;;0.90;99.90;;;;;;7359665;32;20111;-58
2024/01/12 07:56:23;;;;;;;72.35;23.87;;;0.90;99.90;;;;;;7360145;32;20159;-57
2024/01/12 08:00:25;;;;;;;66.78;23.17;;;0.90;99.90;;;;;;7359604;32;20161;-57
2024/01/12 08:04:27;;;;;;;68.62;23.35;;;0.90;99.90;;;;;;7360242;32;20332;-57
2024/01/12 08:08:29;;;;;;;68.80;23.98;;;1.00;99.90;;;;;;7364458;32;20239;-58
2024/01/12 08:12:30;;;;;;;68.43;25.20;;;1.00;99.90;;;;;;7355332;32;20162;-56
2024/01/12 08:16:32;;;;;;;66.22;23.15;;;0.90;99.90;;;;;;7357431;32;20107;-57
2024/01/12 08:20:34;;;;;;;62.97;22.35;;;1.00;99.90;;;;;;7354904;32;20233;-56
2024/01/12 08:24:36;;;;;;;59.13;20.70;;;0.90;99.90;;;;;;7362463;32;20129;-56
2024/01/12 08:28:38;;;;;;;65.47;22.87;;;1.00;99.90;;;;;;7361272;32;20238;-55
2024/01/12 08:32:40;;;;;;;56.53;20.95;;;1.10;99.90;;;;;;7359357;32;20197;-57
2024/01/12 08:36:46;;;;;;;56.87;20.00;;;1.00;99.90;;;;;;7351560;32;21153;-58
2024/01/12 08:40:48;;;;;;;63.50;22.60;;;1.00;99.90;;;;;;7361158;32;20175;-58
2024/01/12 08:44:50;;;;;;;57.42;20.10;;;1.00;99.90;;;;;;7359092;32;20191;-57
2024/01/12 08:48:54;;;;;;;64.80;23.42;;;1.00;99.90;;;;;;7357443;32;20139;-57
2024/01/12 08:52:56;;;;;;;57.30;21.30;;;1.00;99.90;;;;;;7353295;32;20216;-59
2024/01/12 08:56:58;;;;;;;52.42;19.98;;;1.00;99.90;;;;;;7356804;32;20203;-57
2024/01/12 09:01:01;;;;;;;53.10;19.75;;;1.00;99.90;;;;;;7364176;32;20115;-57
2024/01/12 09:05:03;;;;;;;58.22;20.12;;;1.10;99.90;;;;;;7356889;32;20127;-57
2024/01/12 09:09:05;;;;;;;51.35;18.62;;;1.20;99.90;;;;;;7361463;32;20261;-57
2024/01/12 09:13:07;;;;;;;55.38;24.10;;;1.10;99.90;;;;;;7357524;32;20175;-57
2024/01/12 09:17:08;;;;;;;55.75;22.33;;;1.20;99.90;;;;;;7357198;32;20620;-57
2024/01/12 09:21:15;;;;;;;57.05;22.67;;;1.30;99.90;;;;;;7355587;32;20434;-57
2024/01/12 09:25:18;;;;;;;58.97;21.67;;;1.20;99.90;;;;;;7355550;32;20203;-57
2024/01/12 09:29:19;;;;;;;63.30;22.30;;;1.20;99.90;;;;;;7359473;32;20125;-56
2024/01/12 09:33:21;;;;;;;56.60;22.58;;;1.30;99.90;;;;;;7358474;32;20139;-58
2024/01/12 09:37:23;;;;;;;59.70;21.30;;;1.30;99.90;;;;;;7359159;32;20275;-57
2024/01/12 09:41:37;;;;;;;56.28;21.92;;;1.30;99.90;;;;;;7360488;32;20135;-56
2024/01/12 09:45:43;;;;;;;65.25;22.85;;;1.40;99.90;;;;;;7353775;32;20125;-57
2024/01/12 09:49:46;;;;;;;65.97;25.00;;;1.20;99.90;;;;;;7359852;32;20117;-58
2024/01/12 09:53:48;;;;;;;61.72;23.75;;;1.30;99.90;;;;;;7359157;32;20219;-57
2024/01/12 09:57:50;;;;;;;65.00;23.73;;;1.30;99.90;;;;;;7362487;32;20129;-58
2024/01/12 10:01:52;;;;;;;66.37;25.20;;;1.20;99.90;;;;;;7357456;32;20107;-57
2024/01/12 10:05:54;;;;;;;69.30;26.10;;;1.30;99.90;;;;;;7359119;32;20121;-57
2024/01/12 10:09:56;;;;;;;74.12;25.88;;;1.30;99.90;;;;;;7361549;32;20134;-58
2024/01/12 10:13:58;;;;;;;70.93;24.77;;;1.30;99.90;;;;;;7360082;32;20213;-57
2024/01/12 10:18:00;;;;;;;72.82;26.58;;;1.30;99.90;;;;;;7370190;32;20125;-56
2024/01/12 10:22:02;;;;;;;74.15;26.48;;;1.50;99.90;;;;;;7361493;32;20111;-56
2024/01/12 10:26:05;;;;;;;67.10;25.88;;;1.50;99.90;;;;;;7362945;32;20171;-56
2024/01/12 10:30:08;;;;;;;80.82;27.70;;;1.40;99.90;;;;;;7369664;32;20443;-57
2024/01/12 10:34:14;;;;;;;73.78;27.05;;;1.50;99.90;;;;;;7365707;32;20094;-58
2024/01/12 10:38:19;;;;;;;71.93;25.85;;;1.50;99.90;;;;;;7362462;32;20487;-57
2024/01/12 10:42:23;;;;;;;65.53;25.75;;;1.40;99.90;;;;;;7361979;32;20465;-56
2024/01/12 10:46:37;;;;;;;66.90;26.98;;;1.40;99.90;;;;;;7361100;32;20513;-56
2024/01/12 10:50:42;;;;;;;72.40;26.20;;;1.40;99.90;;;;;;7365905;32;21573;-56
2024/01/12 10:54:52;;;;;;;73.10;26.80;;;1.50;99.90;;;;;;7367581;32;20212;-59
2024/01/12 10:58:54;;;;;;;65.93;25.52;;;1.50;99.90;;;;;;7361788;32;20107;-59
2024/01/12 11:02:57;;;;;;;63.83;23.50;;;1.50;99.90;;;;;;7353465;32;20216;-59
2024/01/12 11:07:00;;;;;;;52.60;23.95;;;1.60;99.90;;;;;;7364246;32;20274;-58
2024/01/12 11:11:05;;;;;;;61.75;23.48;;;1.70;99.90;;;;;;7355583;32;20107;-57
2024/01/12 11:15:08;;;;;;;58.92;23.62;;;1.60;99.90;;;;;;7365134;32;20189;-58
2024/01/12 11:19:14;;;;;;;51.80;23.00;;;1.60;99.90;;;;;;7363771;32;20647;-58
2024/01/12 11:23:17;;;;;;;57.25;24.17;;;1.60;99.90;;;;;;7358364;32;20138;-58
2024/01/12 11:27:19;;;;;;;54.63;24.50;;;1.70;99.90;;;;;;7359676;32;20166;-58
2024/01/12 11:31:27;;;;;;;53.45;23.67;;;1.80;99.90;;;;;;7361639;32;20135;-58
2024/01/12 11:35:30;;;;;;;69.20;26.27;;;1.80;99.90;;;;;;7363865;32;20208;-58
2024/01/12 11:39:33;;;;;;;59.47;26.73;;;1.90;99.90;;;;;;7360043;32;20116;-59
2024/01/12 11:43:36;;;;;;;64.87;26.48;;;1.90;99.90;;;;;;7361890;32;20178;-58
2024/01/12 11:47:40;;;;;;;69.22;26.90;;;1.90;99.90;;;;;;7368354;32;20451;-59
2024/01/12 11:51:43;;;;;;;66.75;26.23;;;1.80;99.90;;;;;;7362804;32;20107;-58
2024/01/12 11:55:48;;;;;;;65.20;26.73;;;1.70;99.90;;;;;;7354228;32;20572;-57
2024/01/12 11:59:50;;;;;;;74.40;28.40;;;1.70;99.90;;;;;;7357451;32;20325;-56
2024/01/12 12:03:52;;;;;;;68.45;29.20;;;1.70;99.90;;;;;;7356724;32;20188;-63
2024/01/12 12:07:54;;;;;;;77.07;30.42;;;1.70;99.90;;;;;;7362939;32;20232;-63
2024/01/12 12:11:57;;;;;;;81.93;31.25;;;1.70;99.90;;;;;;7357916;32;20119;-59
2024/01/12 12:15:59;;;;;;;79.53;30.02;;;1.80;99.90;;;;;;7361319;32;20105;-58
2024/01/12 12:20:03;;;;;;;72.70;29.12;;;1.80;99.90;;;;;;7360261;32;20194;-58
2024/01/12 12:24:05;;;;;;;80.28;32.63;;;1.90;99.90;;;;;;7359589;32;20195;-58
2024/01/12 12:28:07;;;;;;;86.35;31.65;;;1.80;99.90;;;;;;7365204;32;20125;-56
2024/01/12 12:32:13;;;;;;;82.05;32.45;;;1.70;99.90;;;;;;7361224;32;20172;-56
2024/01/12 12:36:15;;;;;;;76.90;31.65;;;1.80;99.90;;;;;;7363507;32;20130;-58
2024/01/12 12:40:18;;;;;;;77.90;32.72;;;1.80;99.90;;;;;;7367445;32;20123;-58
2024/01/12 12:44:20;;;;;;;72.75;30.17;;;1.90;99.90;;;;;;7356890;32;20193;-57
2024/01/12 12:48:27;;;;;;;50.38;20.95;;;1.90;99.90;;;;;;7359754;32;20282;-56
2024/01/12 12:52:29;;;;;;;43.17;18.87;;;1.90;99.90;;;;;;7356489;32;20882;-56
2024/01/12 12:56:31;;;;;;;50.85;20.17;;;1.90;99.90;;;;;;7363281;32;20183;-57
2024/01/12 13:00:33;;;;;;;46.05;16.52;;;1.80;99.90;;;;;;7364643;32;20107;-57
2024/01/12 13:04:35;;;;;;;35.92;15.32;;;1.80;99.90;;;;;;7365927;32;20103;-57
2024/01/12 13:08:37;;;;;;;34.97;15.30;;;1.80;99.90;;;;;;7363820;32;20670;-57
2024/01/12 13:12:39;;;;;;;44.17;15.75;;;1.90;99.90;;;;;;7349433;32;20116;-57
2024/01/12 13:16:41;;;;;;;34.85;15.40;;;1.90;99.90;;;;;;7364214;32;20519;-58
2024/01/12 13:20:45;;;;;;;38.85;16.15;;;1.90;99.90;;;;;;7366299;32;20107;-58
2024/01/12 13:24:48;;;;;;;42.92;15.85;;;1.80;99.90;;;;;;7363583;32;20169;-58
2024/01/12 13:28:52;;;;;;;44.13;16.55;;;1.80;99.90;;;;;;7361144;32;20230;-58
2024/01/12 13:32:53;;;;;;;39.35;17.15;;;1.80;99.90;;;;;;7356032;32;20111;-58
2024/01/12 13:37:00;;;;;;;34.95;15.30;;;1.90;99.90;;;;;;7348860;32;20186;-56
2024/01/12 13:41:02;;;;;;;39.05;16.45;;;1.80;99.90;;;;;;7357482;32;20166;-58
2024/01/12 13:45:04;;;;;;;38.03;17.25;;;1.90;99.90;;;;;;7357393;32;20122;-59
2024/01/12 13:49:06;;;;;;;39.92;16.10;;;1.80;99.90;;;;;;7357243;32;20131;-58
2024/01/12 13:53:08;;;;;;;40.35;17.05;;;1.80;99.90;;;;;;7365559;32;20142;-58
2024/01/12 13:57:10;;;;;;;43.10;17.65;;;1.80;99.90;;;;;;7362931;32;20309;-58
2024/01/12 14:01:13;;;;;;;37.78;16.17;;;1.80;99.90;;;;;;7367040;32;20624;-58
2024/01/12 14:05:15;;;;;;;42.75;17.75;;;1.80;99.90;;;;;;7368278;32;20115;-59
2024/01/12 14:09:23;;;;;;;40.92;18.40;;;1.80;99.90;;;;;;7366461;32;20099;-59
2024/01/12 14:13:24;;;;;;;42.70;18.45;;;1.90;99.90;;;;;;7362309;32;20493;-59
2024/01/12 14:17:26;;;;;;;47.75;18.65;;;1.80;99.90;;;;;;7363941;32;20468;-59
2024/01/12 14:21:28;;;;;;;47.22;19.05;;;1.80;99.90;;;;;;7368459;32;20103;-58
2024/01/12 14:25:30;;;;;;;46.97;18.58;;;1.70;99.90;;;;;;7361644;32;20265;-56
2024/01/12 14:29:31;;;;;;;40.20;18.83;;;1.70;99.90;;;;;;7358746;32;20707;-58
2024/01/12 14:33:33;;;;;;;42.55;18.42;;;1.80;99.90;;;;;;7360266;32;20200;-56
2024/01/12 14:37:36;;;;;;;46.95;19.40;;;1.70;99.90;;;;;;7360667;32;20126;-56
2024/01/12 14:41:38;;;;;;;44.83;20.05;;;1.80;99.90;;;;;;7351221;32;20308;-57
2024/01/12 14:45:40;;;;;;;54.65;20.20;;;1.80;99.90;;;;;;7353304;32;20244;-56
2024/01/12 14:49:44;;;;;;;44.83;18.92;;;1.80;99.90;;;;;;7357679;32;20137;-56
2024/01/12 14:53:47;;;;;;;54.17;21.35;;;1.90;99.90;;;;;;7365329;32;20820;-56
2024/01/12 14:57:49;;;;;;;52.22;20.80;;;1.90;99.90;;;;;;7362008;32;20188;-57
2024/01/12 15:01:51;;;;;;;53.40;21.20;;;1.80;99.90;;;;;;7361708;32;20119;-57
2024/01/12 15:05:52;;;;;;;55.25;21.60;;;1.80;99.90;;;;;;7357967;32;20103;-56
2024/01/12 15:09:54;;;;;;;50.55;22.70;;;1.80;99.90;;;;;;7363578;32;20111;-57
2024/01/12 15:13:57;;;;;;;45.72;20.98;;;1.80;99.90;;;;;;7363031;32;20163;-57
2024/01/12 15:17:59;;;;;;;54.13;21.83;;;1.80;99.90;;;;;;7356148;32;20107;-57
2024/01/12 15:22:02;;;;;;;59.38;23.58;;;1.80;99.90;;;;;;7364472;32;20186;-56
2024/01/12 15:26:04;;;;;;;52.38;23.35;;;1.90;99.90;;;;;;7362685;32;20202;-58
2024/01/12 15:30:07;;;;;;;49.13;23.95;;;1.80;99.90;;;;;;7363004;32;20521;-56
2024/01/12 15:34:09;;;;;;;51.75;21.55;;;1.80;99.90;;;;;;7363345;32;21393;-55
2024/01/12 15:38:12;;;;;;;61.92;23.58;;;1.80;99.90;;;;;;7366239;32;20262;-57
2024/01/12 15:42:13;;;;;;;48.10;21.90;;;1.70;99.90;;;;;;7362067;32;20202;-58
2024/01/12 15:46:15;;;;;;;48.40;22.35;;;1.70;99.90;;;;;;7363240;32;20272;-57
2024/01/12 15:50:17;;;;;;;49.92;22.60;;;1.80;99.90;;;;;;7362736;32;20578;-57
2024/01/12 15:54:19;;;;;;;50.55;22.50;;;1.70;99.90;;;;;;7367768;32;20140;-56
2024/01/12 15:58:21;;;;;;;51.78;22.10;;;1.80;99.90;;;;;;7367254;32;20217;-57
2024/01/12 16:02:23;;;;;;;51.45;23.27;;;1.70;99.90;;;;;;7360550;32;20248;-56
2024/01/12 16:06:25;;;;;;;52.28;23.35;;;1.80;99.90;;;;;;7357538;32;20200;-57
2024/01/12 16:10:28;;;;;;;49.63;22.27;;;1.80;99.90;;;;;;7359869;32;20533;-56
2024/01/12 16:14:39;;;;;;;48.35;23.17;;;1.80;99.90;;;;;;7359731;32;20626;-56
2024/01/12 16:18:41;;;;;;;58.70;23.70;;;1.70;99.90;;;;;;7360618;32;20585;-56
2024/01/12 16:22:43;;;;;;;52.40;24.48;;;1.70;99.90;;;;;;7355317;32;20449;-56
2024/01/12 16:26:44;;;;;;;58.20;26.17;;;1.70;99.90;;;;;;7359459;32;20245;-56
2024/01/12 16:30:46;;;;;;;66.40;26.75;;;1.70;99.90;;;;;;7355285;32;20103;-56
2024/01/12 16:34:48;;;;;;;58.47;25.40;;;1.70;99.90;;;;;;7357852;32;20099;-58
2024/01/12 16:38:50;;;;;;;56.33;26.02;;;1.70;99.90;;;;;;7357782;32;20588;-56
2024/01/12 16:42:52;;;;;;;50.00;24.33;;;1.80;99.90;;;;;;7360868;32;20257;-56
2024/01/12 16:46:54;;;;;;;55.78;25.42;;;1.80;99.90;;;;;;7359248;32;20208;-57
2024/01/12 16:50:56;;;;;;;59.08;26.58;;;1.70;99.90;;;;;;7354844;32;20110;-56
2024/01/12 16:55:02;;;;;;;61.55;25.30;;;1.70;99.90;;;;;;7361315;32;20122;-58
2024/01/12 16:59:06;;;;;;;68.68;26.02;;;1.70;99.90;;;;;;7357849;32;20231;-57
2024/01/12 17:03:08;;;;;;;62.05;27.13;;;1.70;99.90;;;;;;7357770;32;20835;-56
2024/01/12 17:07:11;;;;;;;64.12;27.98;;;1.80;99.90;;;;;;7358307;32;20470;-56
2024/01/12 17:11:12;;;;;;;60.65;26.62;;;1.80;99.90;;;;;;7355985;32;20533;-59
2024/01/12 17:15:16;;;;;;;71.05;28.80;;;1.80;99.90;;;;;;7353221;32;20508;-57
2024/01/12 17:19:19;;;;;;;67.12;27.50;;;1.70;99.90;;;;;;7359268;32;20233;-56
2024/01/12 17:23:21;;;;;;;60.53;28.23;;;1.70;99.90;;;;;;7354369;32;20252;-56
2024/01/12 17:27:23;;;;;;;67.60;29.48;;;1.70;99.90;;;;;;7363171;32;20323;-56
2024/01/12 17:31:30;;;;;;;66.37;28.90;;;1.70;99.90;;;;;;7367029;32;20139;-58
2024/01/12 17:35:31;;;;;;;63.95;27.90;;;1.70;99.90;;;;;;7370670;32;20102;-55
2024/01/12 17:39:33;;;;;;;67.25;29.27;;;1.80;99.90;;;;;;7366516;32;20135;-57
2024/01/12 17:43:35;;;;;;;62.90;28.00;;;1.70;99.90;;;;;;7371298;32;20226;-57
2024/01/12 17:47:37;;;;;;;68.68;28.70;;;1.70;99.90;;;;;;7371332;32;20817;-56
2024/01/12 17:51:39;;;;;;;60.65;27.37;;;1.70;99.90;;;;;;7370688;32;20309;-57
2024/01/12 17:55:41;;;;;;;63.20;28.30;;;1.70;99.90;;;;;;7374565;32;20170;-57
2024/01/12 17:59:42;;;;;;;57.83;28.70;;;1.80;99.90;;;;;;7371913;32;20176;-57
2024/01/12 18:03:44;;;;;;;66.50;29.08;;;1.70;99.90;;;;;;7366623;32;20107;-56
2024/01/12 18:07:46;;;;;;;71.87;30.15;;;1.80;99.90;;;;;;7367968;32;20177;-57
2024/01/12 18:11:48;;;;;;;65.85;27.48;;;1.80;99.90;;;;;;7363344;32;20103;-56
2024/01/12 18:15:50;;;;;;;65.32;28.70;;;1.70;99.90;;;;;;7353590;32;20099;-57
2024/01/12 18:19:52;;;;;;;58.22;28.15;;;1.80;99.90;;;;;;7368813;32;20259;-60
2024/01/12 18:23:54;;;;;;;68.05;29.33;;;1.80;99.90;;;;;;7370997;32;20669;-58
2024/01/12 18:27:55;;;;;;;69.30;28.33;;;1.80;99.90;;;;;;7375051;32;20642;-57
2024/01/12 18:31:59;;;;;;;61.95;27.62;;;1.80;99.90;;;;;;7373451;32;20308;-56
2024/01/12 18:36:01;;;;;;;66.18;30.12;;;1.90;99.90;;;;;;7377949;32;20110;-55
2024/01/12 18:40:03;;;;;;;62.45;28.75;;;1.80;99.90;;;;;;7368947;32;20210;-57
2024/01/12 18:44:05;;;;;;;64.80;30.17;;;1.90;99.90;;;;;;7360329;32;20249;-57
2024/01/12 18:48:07;;;;;;;58.10;26.80;;;1.90;99.90;;;;;;7366780;32;20111;-57
2024/01/12 18:52:08;;;;;;;57.08;28.83;;;1.90;99.90;;;;;;7371639;32;20126;-57
2024/01/12 18:56:10;;;;;;;67.78;28.35;;;1.90;99.90;;;;;;7363215;32;20134;-57
2024/01/12 19:00:12;;;;;;;61.55;26.27;;;1.90;99.90;;;;;;7351092;32;20620;-57
2024/01/12 19:04:16;;;;;;;66.43;29.12;;;1.90;99.90;;;;;;7362918;32;20171;-58
2024/01/12 19:08:18;;;;;;;61.60;27.85;;;1.90;99.90;;;;;;7361623;32;20165;-59
2024/01/12 19:12:20;;;;;;;52.58;27.13;;;1.90;99.90;;;;;;7358598;32;20215;-66
2024/01/12 19:16:22;;;;;;;63.42;28.35;;;1.90;99.90;;;;;;7360684;32;20222;-57
2024/01/12 19:20:23;;;;;;;64.35;28.85;;;1.90;99.90;;;;;;7350357;32;20123;-58
2024/01/12 19:24:25;;;;;;;55.92;27.08;;;1.90;99.90;;;;;;7360016;32;20486;-57
2024/01/12 19:28:27;;;;;;;58.15;28.05;;;2.00;99.90;;;;;;7361749;32;20122;-60
2024/01/12 19:32:28;;;;;;;71.78;29.08;;;2.00;99.90;;;;;;7369541;32;20246;-57
2024/01/12 19:36:30;;;;;;;59.97;28.27;;;2.00;99.90;;;;;;7362645;32;20137;-58
2024/01/12 19:40:32;;;;;;;58.75;27.50;;;2.00;99.90;;;;;;7365722;32;20261;-56
2024/01/12 19:44:34;;;;;;;55.38;27.75;;;2.00;99.90;;;;;;7365440;32;20132;-56
2024/01/12 19:48:36;;;;;;;64.35;28.12;;;2.00;99.90;;;;;;7364429;32;20256;-57
2024/01/12 19:52:38;;;;;;;54.38;26.98;;;2.00;99.90;;;;;;7359037;32;20125;-56
2024/01/12 19:56:39;;;;;;;57.78;27.80;;;2.00;99.90;;;;;;7361812;32;20183;-56
2024/01/12 20:00:41;;;;;;;58.70;27.00;;;2.10;99.90;;;;;;7355070;32;20182;-56
2024/01/12 20:04:43;;;;;;;59.47;27.55;;;2.00;99.90;;;;;;7359635;32;20110;-56
2024/01/12 20:08:49;;;;;;;60.75;28.40;;;2.00;99.90;;;;;;7355222;32;20168;-56
2024/01/12 20:12:51;;;;;;;57.53;27.50;;;1.90;99.90;;;;;;7362096;32;20120;-57
2024/01/12 20:16:53;;;;;;;64.87;27.20;;;2.00;99.90;;;;;;7362671;32;20115;-56
2024/01/12 20:20:55;;;;;;;63.45;29.02;;;2.00;99.90;;;;;;7366872;32;20844;-57
2024/01/12 20:24:57;;;;;;;64.18;29.12;;;2.10;99.90;;;;;;7366182;32;20195;-57
2024/01/12 20:28:59;;;;;;;52.72;26.90;;;2.10;99.90;;;;;;7359870;32;21118;-57
2024/01/12 20:33:01;;;;;;;63.08;27.45;;;2.10;99.90;;;;;;7365001;32;20119;-57
2024/01/12 20:37:03;;;;;;;57.62;27.20;;;2.10;99.90;;;;;;7362499;32;20289;-58
2024/01/12 20:41:05;;;;;;;51.72;26.02;;;2.10;99.90;;;;;;7362498;32;20136;-58